Time;durP1;ratioP1;P1;durP2;ratioP2;P2;SDS_P1;SDS_P2;PMS_P1;PMS_P2;Temp;Humidity;BMP_temperature;BMP_pressure;BME280_temperature;BME280_humidity;BME280_pressure;Samples;Min_cycle;Max_cycle;Signal;HPM_P1;HPM_P2
2021/11/02 00:01:12;;;;;;;29.40;17.90;;;;;;;11.58;54.06;100238.80;117382;1182;22910;-68
2021/11/02 00:03:43;;;;;;;26.50;18.00;;;;;;;11.60;54.03;100241.23;117500;1182;23432;-68
2021/11/02 00:06:11;;;;;;;22.80;16.30;;;;;;;11.57;54.00;100237.95;117408;1182;21851;-68
2021/11/02 00:08:40;;;;;;;27.60;17.20;;;;;;;11.48;54.25;100244.44;117471;1185;23478;-68
2021/11/02 00:11:08;;;;;;;23.80;15.80;;;;;;;11.45;54.20;100239.23;117506;1185;23453;-68
2021/11/02 00:13:39;;;;;;;24.60;16.80;;;;;;;11.47;54.26;100239.90;117380;1185;23632;-67
2021/11/02 00:16:10;;;;;;;23.40;15.90;;;;;;;11.58;54.23;100237.23;117439;1186;22918;-68
2021/11/02 00:18:44;;;;;;;23.20;15.80;;;;;;;11.53;54.00;100233.46;117429;1182;22308;-69
2021/11/02 00:21:13;;;;;;;23.80;15.50;;;;;;;11.57;54.13;100228.47;117418;1182;21868;-68
2021/11/02 00:23:41;;;;;;;22.60;15.70;;;;;;;11.44;54.28;100224.67;117441;1186;23004;-67
2021/11/02 00:26:13;;;;;;;22.10;15.00;;;;;;;11.39;54.46;100218.79;117436;1182;22675;-68
2021/11/02 00:28:41;;;;;;;22.80;15.30;;;;;;;11.36;54.34;100214.97;117393;1183;23098;-68
2021/11/02 00:31:09;;;;;;;22.30;15.80;;;;;;;11.33;54.32;100211.52;117542;1183;22906;-67
2021/11/02 00:33:38;;;;;;;20.70;15.00;;;;;;;11.32;54.32;100208.71;117441;1183;23462;-67
2021/11/02 00:36:07;;;;;;;22.30;14.90;;;;;;;11.30;54.31;100204.70;117560;1183;23474;-67
2021/11/02 00:38:35;;;;;;;21.50;14.90;;;;;;;11.31;54.46;100201.53;117515;1186;23438;-67
2021/11/02 00:41:03;;;;;;;21.50;14.80;;;;;;;11.31;54.40;100199.58;117575;1185;23450;-67
2021/11/02 00:43:35;;;;;;;20.50;14.40;;;;;;;11.31;54.40;100191.68;117347;1185;21862;-67
2021/11/02 00:46:04;;;;;;;23.80;15.50;;;;;;;11.31;54.45;100192.38;117396;1189;22453;-68
2021/11/02 00:48:33;;;;;;;19.50;13.40;;;;;;;11.33;54.52;100195.53;117483;1180;22961;-68
2021/11/02 00:51:01;;;;;;;23.60;15.20;;;;;;;11.34;54.45;100196.21;117393;1185;21861;-68
2021/11/02 00:53:30;;;;;;;23.90;15.30;;;;;;;11.33;54.42;100198.50;117329;1185;21859;-68
2021/11/02 00:56:00;;;;;;;21.10;14.50;;;;;;;11.34;54.48;100193.59;117343;1185;21857;-68
2021/11/02 00:58:28;;;;;;;21.50;14.80;;;;;;;11.35;54.54;100194.26;117345;1185;23468;-68
2021/11/02 01:00:56;;;;;;;19.70;13.90;;;;;;;11.34;54.53;100192.17;117352;1186;21855;-67
2021/11/02 01:03:25;;;;;;;19.20;13.80;;;;;;;11.35;54.46;100189.87;117157;1189;22318;-68
2021/11/02 01:05:53;;;;;;;22.10;14.40;;;;;;;11.35;54.42;100189.34;117330;1182;22818;-68
2021/11/02 01:08:22;;;;;;;19.70;14.20;;;;;;;11.34;54.48;100189.36;117406;1185;23523;-68
2021/11/02 01:10:52;;;;;;;20.10;13.70;;;;;;;11.34;54.38;100187.61;117379;1182;23478;-68
2021/11/02 01:13:21;;;;;;;20.80;14.00;;;;;;;11.33;54.35;100184.29;117444;1186;21914;-68
2021/11/02 01:15:49;;;;;;;18.10;12.80;;;;;;;11.32;54.41;100177.09;117342;1182;24152;-68
2021/11/02 01:18:17;;;;;;;20.10;12.80;;;;;;;11.32;54.47;100172.53;117435;1182;23605;-68
2021/11/02 01:20:47;;;;;;;18.10;13.20;;;;;;;11.32;54.50;100166.91;117449;1185;21837;-68
2021/11/02 01:23:15;;;;;;;19.40;13.60;;;;;;;11.32;54.40;100165.14;117345;1188;21845;-67
2021/11/02 01:25:44;;;;;;;19.30;12.90;;;;;;;11.34;54.59;100161.61;117438;1185;22928;-68
2021/11/02 01:28:13;;;;;;;19.90;13.90;;;;;;;11.35;54.66;100160.02;117370;1185;21855;-67
2021/11/02 01:30:41;;;;;;;20.30;13.80;;;;;;;11.37;54.52;100158.39;117371;1185;22813;-68
2021/11/02 01:33:10;;;;;;;20.60;13.60;;;;;;;11.37;54.45;100156.98;117385;1185;22621;-68
2021/11/02 01:35:38;;;;;;;23.10;13.30;;;;;;;11.38;54.62;100153.45;117348;1185;23437;-67
2021/11/02 01:38:07;;;;;;;19.20;13.50;;;;;;;11.43;54.55;100154.23;117332;1179;22829;-67
2021/11/02 01:40:35;;;;;;;21.60;14.20;;;;;;;11.45;54.50;100150.67;117381;1185;21855;-68
2021/11/02 01:43:04;;;;;;;19.60;13.70;;;;;;;11.45;54.42;100154.73;117299;1185;21854;-68
2021/11/02 01:45:32;;;;;;;19.00;12.40;;;;;;;11.46;54.55;100151.20;117526;1185;23461;-68
2021/11/02 01:48:00;;;;;;;19.30;13.10;;;;;;;11.45;54.42;100149.29;117501;1186;24211;-68
2021/11/02 01:50:29;;;;;;;19.90;12.60;;;;;;;11.45;54.59;100146.99;117405;1184;23560;-68
2021/11/02 01:52:59;;;;;;;19.00;12.50;;;;;;;11.44;54.49;100145.61;117439;1176;23436;-68
2021/11/02 01:55:27;;;;;;;19.70;12.10;;;;;;;11.44;54.50;100146.65;117485;1185;22374;-69
2021/11/02 01:57:55;;;;;;;18.30;12.60;;;;;;;11.45;54.69;100146.11;117550;1186;23465;-69
2021/11/02 02:00:24;;;;;;;20.10;12.70;;;;;;;11.47;54.59;100147.66;117527;1176;21856;-69
2021/11/02 02:03:11;;;;;;;17.20;12.50;;;;;;;11.50;54.74;100150.75;117538;1186;21842;-69
2021/11/02 02:06:02;;;;;;;21.80;12.80;;;;;;;11.54;54.72;100151.38;117580;1183;22931;-68
2021/11/02 02:08:40;;;;;;;17.10;11.70;;;;;;;11.58;54.66;100149.55;117231;1185;23442;-69
2021/11/02 02:11:16;;;;;;;20.10;11.80;;;;;;;11.58;54.58;100150.42;117521;1184;22928;-68
2021/11/02 02:14:13;;;;;;;17.80;12.60;;;;;;;11.58;54.61;100150.60;117425;1182;23461;-68
2021/11/02 02:16:46;;;;;;;17.10;12.10;;;;;;;11.57;54.63;100150.80;117246;1188;22310;-68
2021/11/02 02:19:33;;;;;;;17.10;12.00;;;;;;;11.57;54.70;100149.02;117454;1183;21954;-68
2021/11/02 02:22:38;;;;;;;16.20;11.30;;;;;;;11.58;54.65;100148.33;117457;1182;23465;-69
2021/11/02 02:25:31;;;;;;;15.50;11.50;;;;;;;11.58;54.78;100148.13;117389;1186;23436;-69
2021/11/02 02:28:21;;;;;;;18.70;12.00;;;;;;;11.60;54.71;100146.52;117535;1182;24149;-68
2021/11/02 02:31:12;;;;;;;19.80;12.10;;;;;;;11.63;54.51;100148.06;117569;1180;21955;-67
2021/11/02 02:33:46;;;;;;;16.60;11.80;;;;;;;11.63;54.64;100146.30;117540;1185;21846;-68
2021/11/02 02:36:15;;;;;;;16.90;11.40;;;;;;;11.64;54.50;100146.12;117519;1185;21864;-68
2021/11/02 02:38:44;;;;;;;16.90;11.60;;;;;;;11.65;54.56;100142.56;117490;1186;21865;-68
2021/11/02 02:41:12;;;;;;;15.80;11.50;;;;;;;11.66;54.62;100142.88;117550;1185;21937;-68
2021/11/02 02:43:43;;;;;;;19.00;12.20;;;;;;;11.66;54.65;100143.25;117362;1185;23464;-68
2021/11/02 02:46:11;;;;;;;17.20;11.60;;;;;;;11.66;54.46;100139.02;117316;1183;22915;-68
2021/11/02 02:48:42;;;;;;;15.50;10.70;;;;;;;11.65;54.71;100138.88;117389;1185;21848;-68
2021/11/02 02:51:10;;;;;;;15.10;11.20;;;;;;;11.66;54.72;100139.02;117376;1180;23638;-69
2021/11/02 02:53:43;;;;;;;15.40;10.70;;;;;;;11.66;54.75;100135.69;117406;1185;22654;-68
2021/11/02 02:56:12;;;;;;;14.90;10.80;;;;;;;11.67;54.71;100136.55;117280;1182;24234;-68
2021/11/02 02:58:42;;;;;;;16.10;11.10;;;;;;;11.66;54.59;100135.70;117383;1182;21858;-68
2021/11/02 03:01:11;;;;;;;16.80;10.70;;;;;;;11.65;54.66;100131.48;117370;1185;23462;-68
2021/11/02 03:03:57;;;;;;;15.30;11.10;;;;;;;11.65;54.70;100130.97;117343;1184;21873;-68
2021/11/02 03:06:38;;;;;;;16.50;10.50;;;;;;;11.64;54.80;100128.35;117386;1185;24152;-68
2021/11/02 03:09:20;;;;;;;17.90;11.50;;;;;;;11.63;54.79;100127.84;117316;1185;21860;-68
2021/11/02 03:11:56;;;;;;;18.10;12.10;;;;;;;11.61;54.63;100133.66;117328;1185;23535;-68
2021/11/02 03:14:37;;;;;;;18.10;10.70;;;;;;;11.58;54.77;100133.55;117339;1184;21844;-68
2021/11/02 03:17:09;;;;;;;16.50;11.70;;;;;;;11.55;54.58;100135.38;117366;1186;23442;-68
2021/11/02 03:56:57;;;;;;;17.20;11.80;;;;;;;11.50;54.66;100121.60;117295;1186;23848;-68
2021/11/02 05:57:10;;;;;;;18.10;13.40;;;;;;;11.76;54.98;100126.33;117324;1189;23567;-67
2021/11/02 05:59:43;;;;;;;18.90;12.90;;;;;;;11.77;54.98;100124.89;117201;1186;21860;-66
2021/11/02 06:30:03;;;;;;;18.00;12.40;;;;;;;12.38;54.73;100124.27;117379;1184;21857;-66
2021/11/02 06:32:38;;;;;;;18.80;14.80;;;;;;;12.43;54.72;100126.98;117328;1183;22918;-67
2021/11/02 06:35:26;;;;;;;18.40;13.70;;;;;;;12.44;54.87;100127.66;117324;1185;23639;-67
2021/11/02 06:38:12;;;;;;;19.30;14.00;;;;;;;12.43;54.99;100122.77;117142;1186;21863;-66
2021/11/02 06:43:51;;;;;;;19.50;13.80;;;;;;;12.53;54.99;100113.90;117302;1182;23569;-66
2021/11/02 06:57:29;;;;;;;19.00;15.00;;;;;;;12.85;55.23;100106.39;117525;1185;22190;-66
2021/11/02 07:22:53;;;;;;;15.40;12.40;;;;;;;13.69;55.06;100114.52;117322;1182;23466;-63
2021/11/02 07:28:17;;;;;;;13.60;11.20;;;;;;;13.88;55.26;100115.55;117339;1182;22805;-66
2021/11/02 08:48:03;;;;;;;28.80;19.00;;;;;;;14.41;54.90;100060.75;116982;1186;23475;-59
2021/11/02 08:50:41;;;;;;;16.60;12.90;;;;;;;14.47;54.85;100054.20;116963;1184;21888;-60
2021/11/02 08:53:11;;;;;;;18.30;12.40;;;;;;;14.54;54.89;100049.55;116838;1186;23465;-64
2021/11/02 08:55:43;;;;;;;14.80;12.10;;;;;;;14.66;55.10;100040.87;116834;1189;21990;-60
2021/11/02 08:58:11;;;;;;;15.80;12.60;;;;;;;14.81;55.05;100038.27;116869;1189;22423;-59
2021/11/02 09:00:40;;;;;;;14.60;12.10;;;;;;;14.94;55.12;100036.94;116853;1189;23473;-59
2021/11/02 09:03:14;;;;;;;21.20;14.80;;;;;;;15.05;55.12;100036.70;116995;1188;22089;-62
2021/11/02 09:05:42;;;;;;;15.10;12.30;;;;;;;15.13;54.98;100030.93;116966;1186;23560;-59
2021/11/02 09:08:11;;;;;;;19.70;15.70;;;;;;;15.17;54.92;100027.77;117283;1185;23554;-58
2021/11/02 09:10:41;;;;;;;23.10;16.50;;;;;;;15.25;55.02;100025.38;117406;1186;21860;-61
2021/11/02 09:13:10;;;;;;;15.20;12.30;;;;;;;15.38;55.21;100026.48;117527;1185;21852;-62
2021/11/02 09:15:38;;;;;;;23.50;19.10;;;;;;;15.49;55.09;100023.42;117532;1182;21870;-62
2021/11/02 09:18:09;;;;;;;17.60;14.50;;;;;;;15.56;55.12;100019.10;117483;1181;23458;-59
2021/11/02 09:20:38;;;;;;;17.90;14.50;;;;;;;15.58;54.96;100019.36;117509;1184;23438;-59
2021/11/02 09:23:08;;;;;;;18.80;14.90;;;;;;;15.55;54.81;100012.20;117529;1184;22992;-58
2021/11/02 09:25:37;;;;;;;19.60;14.30;;;;;;;15.53;54.77;100013.70;117541;1185;21874;-58
2021/11/02 09:28:05;;;;;;;15.70;13.40;;;;;;;15.52;54.83;100009.65;117495;1186;23544;-59
2021/11/02 09:30:33;;;;;;;16.20;13.70;;;;;;;15.57;54.92;100009.34;117574;1184;22331;-62
2021/11/02 09:33:01;;;;;;;15.10;13.30;;;;;;;15.62;55.02;100003.64;118411;1184;22319;-61
2021/11/02 09:35:32;;;;;;;17.40;13.80;;;;;;;15.72;55.06;100002.19;117496;1186;21855;-59
2021/11/02 09:38:13;;;;;;;15.30;13.60;;;;;;;15.88;55.26;99992.74;117476;1182;23461;-58
2021/11/02 09:41:08;;;;;;;16.40;14.40;;;;;;;16.06;55.37;99985.12;117519;1183;23446;-59
2021/11/02 09:43:53;;;;;;;14.80;12.80;;;;;;;16.28;55.20;99983.30;117521;1184;21855;-58
2021/11/02 09:46:36;;;;;;;15.20;13.00;;;;;;;16.45;55.12;99977.98;117346;1186;21845;-62
2021/11/02 09:49:10;;;;;;;17.20;14.40;;;;;;;16.62;55.44;99968.92;117383;1186;22912;-60
2021/11/02 09:51:54;;;;;;;15.80;12.60;;;;;;;16.86;55.37;99966.83;117507;1183;23554;-59
2021/11/02 09:54:32;;;;;;;17.40;13.20;;;;;;;16.99;55.16;99961.65;117522;1184;24161;-59
2021/11/02 09:57:17;;;;;;;15.30;13.50;;;;;;;17.10;55.11;99960.30;117528;1182;21980;-62
2021/11/02 09:59:45;;;;;;;;;;;;;;;17.14;54.94;99955.15;117524;1186;21881;-59
2021/11/02 10:02:34;;;;;;;16.30;13.40;;;;;;;17.10;55.11;99953.87;117424;1182;22955;-59
2021/11/02 10:05:11;;;;;;;18.00;13.80;;;;;;;17.15;55.17;99951.74;117394;1183;21977;-62
2021/11/02 10:08:05;;;;;;;16.50;14.40;;;;;;;17.19;55.10;99956.13;117403;1185;23516;-59
2021/11/02 10:10:59;;;;;;;17.40;13.80;;;;;;;17.25;55.17;99954.95;117432;1182;23566;-62
2021/11/02 10:13:49;;;;;;;15.60;13.10;;;;;;;17.36;55.22;99948.27;117357;1188;22951;-59
2021/11/02 10:16:58;;;;;;;14.40;12.90;;;;;;;17.48;55.26;99949.44;117443;1185;24613;-63
2021/11/02 10:19:53;;;;;;;16.00;13.40;;;;;;;17.55;55.16;99950.71;117553;1186;21860;-59
2021/11/02 10:22:27;;;;;;;17.50;13.90;;;;;;;17.60;55.03;99955.11;117550;1183;22726;-62
2021/11/02 10:25:04;;;;;;;15.00;11.90;;;;;;;17.52;54.67;99945.71;117505;1186;21871;-63
2021/11/02 10:28:08;;;;;;;14.90;12.80;;;;;;;17.42;54.54;99943.86;117462;1185;22228;-59
2021/11/02 10:31:16;;;;;;;13.80;12.20;;;;;;;17.22;54.58;99934.19;117544;1186;23515;-61
2021/11/02 10:33:48;;;;;;;13.50;11.60;;;;;;;17.02;54.47;99931.39;116917;1186;21861;-61
2021/11/02 10:36:36;;;;;;;15.90;12.80;;;;;;;16.88;54.46;99927.39;116928;1187;21914;-62
2021/11/02 10:39:12;;;;;;;14.50;12.80;;;;;;;16.86;54.77;99921.11;116924;1189;21861;-61
2021/11/02 10:41:49;;;;;;;17.40;13.60;;;;;;;16.99;54.97;99910.95;116837;1189;21867;-62
2021/11/02 10:44:30;;;;;;;17.20;14.40;;;;;;;17.10;54.90;99904.09;116830;1189;22107;-61
2021/11/02 10:47:03;;;;;;;16.80;13.30;;;;;;;17.18;54.91;99897.84;116925;1186;23635;-62
2021/11/02 10:49:47;;;;;;;14.50;13.00;;;;;;;17.32;55.04;99895.60;116897;1189;21864;-61
2021/11/02 10:52:18;;;;;;;16.80;14.00;;;;;;;17.42;55.03;99892.83;116843;1189;22890;-61
2021/11/02 10:55:11;;;;;;;14.50;12.90;;;;;;;17.46;54.84;99893.15;116874;1189;24268;-61
2021/11/02 10:57:44;;;;;;;17.00;13.10;;;;;;;17.48;54.83;99899.59;116931;1189;21861;-62
2021/11/02 11:00:13;;;;;;;14.30;12.60;;;;;;;17.57;54.86;99900.60;116963;1189;21941;-59
2021/11/02 11:02:43;;;;;;;14.60;12.50;;;;;;;17.67;54.93;99900.64;116800;1189;23611;-58
2021/11/02 11:05:11;;;;;;;15.70;13.10;;;;;;;17.68;54.69;99898.63;117124;1186;21867;-58
2021/11/02 11:07:43;;;;;;;15.80;13.20;;;;;;;17.64;54.54;99894.08;117462;1186;22985;-59
2021/11/02 11:10:13;;;;;;;17.10;12.90;;;;;;;17.58;54.54;99893.48;117502;1180;23473;-59
2021/11/02 11:12:55;;;;;;;15.30;13.10;;;;;;;17.61;54.77;99890.65;117499;1182;23550;-58
2021/11/02 11:15:27;;;;;;;18.80;14.00;;;;;;;17.73;54.81;99886.70;117534;1183;22931;-59
2021/11/02 11:17:59;;;;;;;16.00;13.90;;;;;;;17.77;54.70;99880.98;117632;1185;21851;-59
2021/11/02 11:20:27;;;;;;;16.30;13.80;;;;;;;17.83;54.85;99878.36;117523;1185;23438;-60
2021/11/02 11:22:55;;;;;;;16.00;13.80;;;;;;;17.95;54.99;99876.34;117499;1183;22380;-61
2021/11/02 11:26:00;;;;;;;18.90;16.00;;;;;;;18.03;54.78;99877.95;117432;1185;23436;-61
2021/11/02 11:28:37;;;;;;;14.40;12.90;;;;;;;18.05;54.69;99875.01;117314;1189;22924;-61
2021/11/02 11:31:06;;;;;;;15.80;13.90;;;;;;;18.09;54.71;99874.64;117365;1186;24740;-59
2021/11/02 11:33:35;;;;;;;16.80;14.00;;;;;;;18.10;54.62;99873.86;117422;1182;23544;-60
2021/11/02 11:36:05;;;;;;;16.40;14.10;;;;;;;18.11;54.66;99876.98;117332;1186;23478;-58
2021/11/02 11:38:37;;;;;;;15.80;14.00;;;;;;;18.17;54.64;99880.07;117416;1182;22818;-60
2021/11/02 11:41:07;;;;;;;16.10;14.20;;;;;;;18.22;54.72;99882.82;117344;1183;22969;-62
2021/11/02 11:43:36;;;;;;;15.30;13.10;;;;;;;18.26;54.71;99881.36;117437;1184;23557;-61
2021/11/02 11:46:05;;;;;;;15.20;13.60;;;;;;;18.27;54.65;99877.23;117453;1184;21867;-61
2021/11/02 11:48:41;;;;;;;14.80;13.10;;;;;;;18.25;54.50;99882.31;117478;1186;23548;-58
2021/11/02 11:51:21;;;;;;;16.90;13.90;;;;;;;18.19;54.46;99878.36;117449;1186;22529;-61
2021/11/02 11:53:52;;;;;;;14.70;13.10;;;;;;;18.21;54.62;99876.48;117405;1182;23442;-62
2021/11/02 11:56:20;;;;;;;15.90;12.10;;;;;;;18.25;54.57;99879.85;117352;1185;21848;-61
2021/11/02 11:58:51;;;;;;;13.60;12.00;;;;;;;18.28;54.62;99875.41;117468;1185;21845;-61
2021/11/02 12:01:57;;;;;;;14.00;12.20;;;;;;;18.29;54.49;99878.72;117512;1185;21851;-62
2021/11/02 12:04:46;;;;;;;15.50;13.00;;;;;;;18.23;54.40;99881.00;117385;1185;21871;-58
2021/11/02 12:07:29;;;;;;;14.70;12.70;;;;;;;18.16;54.41;99870.38;117463;1182;23448;-58
2021/11/02 12:10:04;;;;;;;15.10;11.50;;;;;;;18.12;54.53;99868.95;117390;1180;21849;-58
2021/11/02 12:12:34;;;;;;;13.50;11.60;;;;;;;18.18;54.62;99871.27;117568;1183;22928;-61
2021/11/02 12:15:23;;;;;;;17.80;12.20;;;;;;;18.11;54.42;99868.47;117463;1183;23490;-61
2021/11/02 12:17:52;;;;;;;16.20;13.40;;;;;;;18.05;54.36;99872.14;117430;1187;21970;-61
2021/11/02 12:20:21;;;;;;;15.10;12.90;;;;;;;18.00;54.27;99871.17;117421;1184;21856;-60
2021/11/02 12:22:56;;;;;;;14.10;12.20;;;;;;;17.96;54.43;99867.23;117410;1176;21877;-61
2021/11/02 12:25:28;;;;;;;14.80;12.10;;;;;;;18.04;54.53;99866.55;117344;1182;23427;-58
2021/11/02 12:27:56;;;;;;;15.40;13.30;;;;;;;18.06;54.46;99862.86;117396;1186;21869;-61
2021/11/02 12:30:26;;;;;;;14.90;12.20;;;;;;;18.08;54.51;99859.02;117573;1185;21855;-58
2021/11/02 12:32:59;;;;;;;15.40;12.60;;;;;;;18.16;54.56;99860.27;117543;1185;23483;-60
2021/11/02 12:35:39;;;;;;;15.20;12.70;;;;;;;18.20;54.58;99851.32;117526;1185;21855;-61
2021/11/02 12:38:08;;;;;;;16.20;13.20;;;;;;;18.20;54.49;99848.80;117447;1186;21857;-58
2021/11/02 12:40:39;;;;;;;17.10;13.10;;;;;;;18.19;54.47;99852.96;117444;1185;21855;-58
2021/11/02 12:43:24;;;;;;;15.20;12.60;;;;;;;18.18;54.31;99853.39;117338;1182;23467;-58
2021/11/02 12:45:54;;;;;;;15.90;12.00;;;;;;;18.05;54.20;99854.38;117381;1186;21885;-61
2021/11/02 12:48:22;;;;;;;15.30;12.20;;;;;;;17.96;54.28;99854.81;117312;1189;21855;-58
2021/11/02 12:51:14;;;;;;;14.80;12.60;;;;;;;17.92;54.24;99852.71;117273;1182;21858;-61
2021/11/02 12:53:46;;;;;;;14.90;13.20;;;;;;;17.88;54.18;99851.36;117423;1182;21859;-58
2021/11/02 12:56:16;;;;;;;15.80;13.40;;;;;;;17.81;54.22;99852.42;117103;1185;24213;-60
2021/11/02 12:58:46;;;;;;;18.10;13.10;;;;;;;17.74;54.18;99850.60;117359;1185;23006;-60
2021/11/02 13:01:28;;;;;;;16.10;13.90;;;;;;;17.64;54.13;99849.69;117321;1183;21963;-60
2021/11/02 13:03:56;;;;;;;15.10;12.70;;;;;;;17.53;54.22;99852.20;117337;1186;21854;-62
2021/11/02 13:06:50;;;;;;;17.60;14.20;;;;;;;17.46;54.30;99852.20;117122;1185;22812;-60
2021/11/02 13:09:20;;;;;;;18.60;14.60;;;;;;;17.37;54.29;99856.89;117312;1185;22917;-60
2021/11/02 13:12:04;;;;;;;15.50;13.70;;;;;;;17.30;54.30;99852.41;117325;1182;21860;-60
2021/11/02 13:14:39;;;;;;;17.90;15.00;;;;;;;17.26;54.28;99855.11;117442;1179;21930;-60
2021/11/02 13:17:10;;;;;;;18.10;15.20;;;;;;;17.19;54.27;99853.48;117374;1182;21886;-61
2021/11/02 13:19:39;;;;;;;20.20;15.40;;;;;;;17.12;54.29;99849.23;117367;1186;21858;-58
2021/11/02 13:22:10;;;;;;;17.70;14.60;;;;;;;17.06;54.30;99853.73;117312;1184;24600;-58
2021/11/02 13:24:43;;;;;;;19.30;14.80;;;;;;;17.00;54.24;99851.93;117374;1186;23451;-61
2021/11/02 13:27:11;;;;;;;19.50;15.60;;;;;;;16.94;54.23;99848.23;117373;1183;22629;-60
2021/11/02 13:29:40;;;;;;;18.00;15.60;;;;;;;16.92;54.30;99850.45;117390;1186;21853;-58
2021/11/02 13:32:08;;;;;;;22.00;16.70;;;;;;;16.88;54.19;99851.70;117439;1182;21846;-61
2021/11/02 13:34:38;;;;;;;18.40;16.40;;;;;;;16.84;54.20;99848.88;117333;1183;21857;-58
2021/11/02 13:37:11;;;;;;;20.00;16.30;;;;;;;16.79;54.30;99845.75;117378;1185;21843;-58
2021/11/02 13:39:58;;;;;;;20.80;16.10;;;;;;;16.75;54.26;99851.95;117379;1185;21863;-57
2021/11/02 13:42:46;;;;;;;22.60;15.90;;;;;;;16.73;54.24;99853.65;117304;1185;22838;-60
2021/11/02 13:45:17;;;;;;;18.90;15.20;;;;;;;16.69;54.21;99855.61;117396;1182;21854;-60
2021/11/02 13:47:46;;;;;;;17.40;14.40;;;;;;;16.66;54.33;99853.77;117322;1183;21866;-60
2021/11/02 13:50:18;;;;;;;16.20;14.40;;;;;;;16.64;54.26;99855.29;117277;1184;23481;-58
2021/11/02 13:52:52;;;;;;;18.60;15.10;;;;;;;16.61;54.27;99853.84;117580;1185;23004;-60
2021/11/02 13:55:22;;;;;;;19.60;14.50;;;;;;;16.56;54.22;99853.20;117531;1184;21855;-58
2021/11/02 13:57:50;;;;;;;17.30;14.70;;;;;;;16.50;54.36;99857.70;117574;1183;23464;-60
2021/11/02 14:00:18;;;;;;;17.90;14.60;;;;;;;16.47;54.25;99859.46;117370;1183;23542;-58
2021/11/02 14:02:47;;;;;;;17.60;14.80;;;;;;;16.44;54.35;99858.50;117510;1182;22913;-58
2021/11/02 14:05:16;;;;;;;19.40;15.60;;;;;;;16.42;54.31;99862.85;117443;1185;22034;-59
2021/11/02 14:07:44;;;;;;;18.10;15.10;;;;;;;16.38;54.25;99864.61;117443;1186;22171;-59
2021/11/02 14:10:30;;;;;;;19.20;16.10;;;;;;;16.32;54.29;99866.27;117374;1182;24149;-60
2021/11/02 14:12:58;;;;;;;20.90;16.50;;;;;;;16.27;54.23;99866.67;117571;1183;21978;-60
2021/11/02 14:15:29;;;;;;;24.30;17.50;;;;;;;16.23;54.18;99864.60;117429;1186;21869;-58
2021/11/02 14:17:57;;;;;;;21.10;16.80;;;;;;;16.14;54.15;99861.06;117411;1179;21907;-60
2021/11/02 14:20:36;;;;;;;22.40;16.80;;;;;;;16.05;54.14;99861.46;118613;1184;21850;-58
2021/11/02 14:23:19;;;;;;;23.90;19.20;;;;;;;15.92;54.17;99865.70;117427;1185;22937;-60
2021/11/02 14:25:47;;;;;;;24.70;18.60;;;;;;;15.83;54.21;99866.08;117435;1185;21857;-58
2021/11/02 14:28:15;;;;;;;25.20;19.20;;;;;;;15.76;54.25;99868.45;117500;1185;21875;-59
2021/11/02 14:30:44;;;;;;;23.50;17.70;;;;;;;15.70;54.21;99866.77;117397;1186;23565;-57
2021/11/02 14:33:17;;;;;;;22.50;17.60;;;;;;;15.63;54.25;99860.02;117495;1182;21826;-58
2021/11/02 14:35:47;;;;;;;25.70;18.60;;;;;;;15.57;54.22;99864.85;117479;1182;21945;-57
2021/11/02 14:38:25;;;;;;;21.90;17.00;;;;;;;15.51;54.21;99868.27;117525;1186;21860;-59
2021/11/02 14:41:19;;;;;;;21.50;17.60;;;;;;;15.45;54.34;99864.06;117502;1182;23523;-59
2021/11/02 14:44:24;;;;;;;23.70;18.60;;;;;;;15.41;54.21;99865.85;117489;1182;24327;-58
2021/11/02 14:46:57;;;;;;;23.00;18.10;;;;;;;15.34;54.33;99856.77;117391;1184;21859;-57
2021/11/02 14:49:28;;;;;;;24.20;17.90;;;;;;;15.29;54.36;99853.57;117352;1183;22623;-60
2021/11/02 14:52:03;;;;;;;23.70;19.70;;;;;;;15.25;54.30;99849.15;117389;1185;21951;-58
2021/11/02 14:54:38;;;;;;;26.20;19.60;;;;;;;15.20;54.34;99846.91;117413;1184;21867;-58
2021/11/02 14:57:19;;;;;;;28.00;23.70;;;;;;;15.12;54.35;99851.59;117488;1182;23544;-58
2021/11/02 14:59:54;;;;;;;29.30;23.10;;;;;;;15.09;54.30;99853.16;117468;1182;21855;-58
2021/11/02 15:02:34;;;;;;;26.10;21.10;;;;;;;15.05;54.30;99849.40;117557;1184;21842;-58
2021/11/02 15:05:05;;;;;;;25.50;20.70;;;;;;;15.02;54.37;99842.96;117505;1183;21855;-58
2021/11/02 15:07:42;;;;;;;25.10;20.20;;;;;;;14.99;54.38;99839.21;117336;1185;21863;-59
2021/11/02 15:10:12;;;;;;;25.20;20.60;;;;;;;14.97;54.37;99837.71;117444;1186;21863;-61
2021/11/02 15:12:44;;;;;;;24.90;21.30;;;;;;;14.93;54.35;99836.64;117445;1182;22914;-58
2021/11/02 15:15:13;;;;;;;24.50;19.60;;;;;;;14.90;54.43;99840.27;117506;1182;23470;-58
2021/11/02 15:17:42;;;;;;;29.70;22.60;;;;;;;14.87;54.38;99836.48;117503;1182;23442;-58
2021/11/02 15:20:26;;;;;;;27.60;21.00;;;;;;;14.84;54.42;99842.78;117518;1182;23465;-58
2021/11/02 15:22:56;;;;;;;31.60;21.60;;;;;;;14.84;54.51;99840.30;117483;1182;22989;-58
2021/11/02 15:25:26;;;;;;;27.90;21.40;;;;;;;14.89;54.56;99836.95;117475;1182;21896;-58
2021/11/02 15:27:59;;;;;;;27.40;20.90;;;;;;;14.90;54.41;99838.86;117426;1183;21858;-58
2021/11/02 15:30:27;;;;;;;30.60;23.30;;;;;;;14.86;54.37;99833.35;117424;1182;21870;-60
2021/11/02 15:32:56;;;;;;;29.10;22.70;;;;;;;14.82;54.31;99841.11;117510;1183;22959;-59
2021/11/02 15:35:26;;;;;;;;;;;;;;;14.77;54.33;99838.11;117417;1185;21839;-59
2021/11/02 15:37:59;;;;;;;33.00;24.80;;;;;;;14.74;54.40;99837.17;117497;1185;21857;-58
2021/11/02 15:40:42;;;;;;;34.10;25.30;;;;;;;14.71;54.38;99836.77;117535;1182;23429;-59
2021/11/02 15:43:12;;;;;;;35.50;25.80;;;;;;;14.69;54.50;99837.90;117609;1179;23464;-58
2021/11/02 15:45:43;;;;;;;35.60;26.50;;;;;;;14.66;54.42;99840.09;117429;1183;23468;-58
2021/11/02 15:48:18;;;;;;;35.40;26.50;;;;;;;14.64;54.33;99841.23;117460;1185;21858;-59
2021/11/02 15:50:53;;;;;;;37.20;27.20;;;;;;;14.62;54.36;99839.02;117280;1182;22843;-60
2021/11/02 15:53:28;;;;;;;36.40;27.10;;;;;;;14.58;54.44;99838.63;117476;1182;23084;-59
2021/11/02 15:55:57;;;;;;;36.40;27.60;;;;;;;14.56;54.42;99836.40;117382;1182;21874;-60
2021/11/02 15:58:28;;;;;;;38.00;28.80;;;;;;;14.56;54.52;99839.75;117460;1182;23539;-60
2021/11/02 16:00:56;;;;;;;41.50;28.80;;;;;;;14.56;54.47;99846.80;117561;1182;22912;-59
2021/11/02 16:03:34;;;;;;;43.20;30.80;;;;;;;14.55;54.46;99849.34;117487;1185;21914;-59
2021/11/02 16:06:06;;;;;;;41.20;29.50;;;;;;;14.55;54.62;99852.33;117503;1182;23494;-59
2021/11/02 16:08:35;;;;;;;;;;;;;;;14.55;54.53;99848.80;117562;1179;22926;-59
2021/11/02 16:11:06;;;;;;;38.20;28.40;;;;;;;14.55;54.68;99849.50;117527;1184;22640;-60
2021/11/02 16:13:36;;;;;;;36.40;28.80;;;;;;;14.56;54.54;99850.90;117446;1186;21864;-59
2021/11/02 16:16:10;;;;;;;38.20;29.00;;;;;;;14.56;54.60;99852.82;117381;1185;23533;-59
2021/11/02 16:18:40;;;;;;;35.90;26.70;;;;;;;14.57;54.56;99849.27;117362;1183;23635;-59
2021/11/02 16:21:09;;;;;;;37.10;28.30;;;;;;;14.57;54.58;99851.56;117424;1185;21855;-59
2021/11/02 16:23:46;;;;;;;35.20;27.60;;;;;;;14.57;54.59;99853.64;117388;1182;23284;-59
2021/11/02 16:26:26;;;;;;;35.60;27.20;;;;;;;14.56;54.48;99854.95;117363;1184;21864;-60
2021/11/02 16:29:14;;;;;;;38.70;27.30;;;;;;;14.55;54.56;99854.64;117412;1184;23362;-59
2021/11/02 16:31:46;;;;;;;37.80;27.60;;;;;;;14.54;54.64;99850.27;117441;1182;22090;-59
2021/11/02 16:34:21;;;;;;;36.60;27.70;;;;;;;14.54;54.63;99845.15;117522;1185;22916;-60
2021/11/02 16:36:52;;;;;;;38.60;27.50;;;;;;;14.54;54.68;99847.79;117471;1186;21862;-59
2021/11/02 16:39:24;;;;;;;40.30;28.80;;;;;;;14.54;54.66;99845.65;117510;1185;23574;-60